createdAt,value
2019-05-29T00:01:21.873Z,10.70
2019-05-29T00:03:52.396Z,10.60
2019-05-29T00:06:22.765Z,10.60
2019-05-29T00:08:53.114Z,10.60
2019-05-29T00:11:23.582Z,10.50
2019-05-29T00:13:53.921Z,10.50
2019-05-29T00:16:24.944Z,10.50
2019-05-29T00:18:58.270Z,10.50
2019-05-29T00:21:27.370Z,10.50
2019-05-29T00:23:57.675Z,10.40
2019-05-29T00:26:28.337Z,10.40
2019-05-29T00:28:58.645Z,10.40
2019-05-29T00:31:28.960Z,10.40
2019-05-29T00:33:59.307Z,10.30
2019-05-29T00:36:29.637Z,10.30
2019-05-29T00:38:59.983Z,10.40
2019-05-29T00:41:30.323Z,10.30
2019-05-29T00:44:00.887Z,10.20
2019-05-29T00:46:31.199Z,10.20
2019-05-29T00:49:01.506Z,10.10
2019-05-29T00:51:31.845Z,10.10
2019-05-29T00:54:02.251Z,10.10
2019-05-29T00:56:32.658Z,10.10
2019-05-29T00:59:03.032Z,10.00
2019-05-29T01:01:33.874Z,9.90
2019-05-29T01:04:04.191Z,9.90
2019-05-29T01:06:34.519Z,9.90
2019-05-29T01:09:06.790Z,9.80
2019-05-29T01:11:37.169Z,9.90
2019-05-29T01:14:07.579Z,9.80
2019-05-29T01:16:37.973Z,9.80
2019-05-29T01:19:26.493Z,9.80
2019-05-29T01:22:00.690Z,9.70
2019-05-29T01:24:31.100Z,9.70
2019-05-29T01:27:01.503Z,9.70
2019-05-29T01:29:31.831Z,9.70
2019-05-29T01:32:02.243Z,9.70
2019-05-29T01:34:32.599Z,9.60
2019-05-29T01:37:03.123Z,9.60
2019-05-29T01:39:33.465Z,9.60
2019-05-29T01:42:03.905Z,9.50
2019-05-29T01:44:34.213Z,9.50
2019-05-29T01:47:04.510Z,9.50
2019-05-29T01:49:34.911Z,9.50
2019-05-29T01:52:05.383Z,9.50
2019-05-29T01:54:35.730Z,9.50
2019-05-29T01:57:06.064Z,9.40
2019-05-29T01:59:36.466Z,9.40
2019-05-29T02:02:06.779Z,9.40
2019-05-29T02:04:37.142Z,9.40
2019-05-29T02:07:07.807Z,9.50
2019-05-29T02:09:38.300Z,9.50
2019-05-29T02:12:08.641Z,9.50
2019-05-29T02:14:38.997Z,9.50
2019-05-29T02:17:09.823Z,9.50
2019-05-29T02:19:40.147Z,9.50
2019-05-29T02:22:10.565Z,9.50
2019-05-29T02:24:40.925Z,9.50
2019-05-29T02:27:11.257Z,9.50
2019-05-29T02:29:41.634Z,9.50
2019-05-29T02:32:11.987Z,9.40
2019-05-29T02:34:42.460Z,9.40
2019-05-29T02:37:12.906Z,9.40
2019-05-29T02:39:43.225Z,9.40
2019-05-29T02:42:13.572Z,9.40
2019-05-29T02:44:44.054Z,9.40
2019-05-29T02:47:14.362Z,9.40
2019-05-29T02:49:44.801Z,9.40
2019-05-29T02:52:15.167Z,9.50
2019-05-29T02:54:45.475Z,9.50
2019-05-29T02:57:15.806Z,9.50
2019-05-29T02:59:46.215Z,9.50
2019-05-29T03:02:16.684Z,9.50
2019-05-29T03:04:47.051Z,9.50
2019-05-29T03:07:22.270Z,9.50
2019-05-29T03:09:52.846Z,9.60
2019-05-29T03:12:25.055Z,9.60
2019-05-29T03:14:56.384Z,9.70
2019-05-29T03:17:27.908Z,9.70
2019-05-29T03:19:59.174Z,9.80
2019-05-29T03:22:31.370Z,9.80
2019-05-29T03:25:01.555Z,9.90
2019-05-29T03:27:32.066Z,9.90
2019-05-29T03:30:02.436Z,10.00
2019-05-29T03:32:41.707Z,10.00
2019-05-29T03:35:05.544Z,10.00
2019-05-29T03:37:36.263Z,10.00
2019-05-29T03:40:07.069Z,10.00
2019-05-29T03:42:39.068Z,10.00
2019-05-29T03:45:09.810Z,10.10
2019-05-29T03:47:40.150Z,10.10
2019-05-29T03:50:15.478Z,10.10
2019-05-29T03:52:43.418Z,10.20
2019-05-29T03:55:14.623Z,10.20
2019-05-29T03:57:45.067Z,10.20
2019-05-29T04:00:15.747Z,10.20
2019-05-29T04:02:46.071Z,10.30
2019-05-29T04:05:16.488Z,10.30
2019-05-29T04:07:46.914Z,10.30
2019-05-29T04:10:29.353Z,10.30
2019-05-29T04:13:01.966Z,10.30
2019-05-29T04:15:36.615Z,10.30
2019-05-29T04:18:08.432Z,10.20
2019-05-29T04:20:39.133Z,10.10
2019-05-29T04:23:09.799Z,10.10
2019-05-29T04:25:42.799Z,10.00
2019-05-29T04:28:12.319Z,10.00
2019-05-29T04:30:42.784Z,10.00
2019-05-29T04:33:13.227Z,9.90
2019-05-29T04:35:43.643Z,9.90
2019-05-29T04:38:13.988Z,9.90
2019-05-29T04:40:44.409Z,9.80
2019-05-29T04:43:14.856Z,9.80
2019-05-29T04:45:45.286Z,9.80
2019-05-29T04:48:15.606Z,9.80
2019-05-29T04:50:45.967Z,9.70
2019-05-29T04:53:16.395Z,9.70
2019-05-29T04:55:46.721Z,9.70
2019-05-29T04:58:17.072Z,9.60
2019-05-29T05:00:58.678Z,9.60
2019-05-29T05:03:19.743Z,9.60
2019-05-29T05:05:50.411Z,9.60
2019-05-29T05:08:21.113Z,9.60
2019-05-29T05:10:52.112Z,9.70
2019-05-29T05:13:22.751Z,9.70
2019-05-29T05:15:56.432Z,9.80
2019-05-29T05:18:26.905Z,9.80
2019-05-29T05:20:57.268Z,9.90
2019-05-29T05:23:27.634Z,9.90
2019-05-29T05:25:57.969Z,10.00
2019-05-29T05:28:30.279Z,10.00
2019-05-29T05:31:00.819Z,10.10
2019-05-29T05:33:32.358Z,10.10
2019-05-29T05:36:03.050Z,10.20
2019-05-29T05:38:34.612Z,10.20
2019-05-29T05:41:05.561Z,10.30
2019-05-29T05:43:36.919Z,10.40
2019-05-29T05:46:07.668Z,10.40
2019-05-29T05:48:39.168Z,10.50
2019-05-29T05:51:09.988Z,10.50
2019-05-29T05:53:41.699Z,10.60
2019-05-29T05:56:14.204Z,10.60
2019-05-29T05:58:44.612Z,10.70
2019-05-29T06:01:15.029Z,10.70
2019-05-29T06:03:45.511Z,10.80
2019-05-29T06:06:16.183Z,10.80
2019-05-29T06:08:46.536Z,10.90
2019-05-29T06:11:17.126Z,10.90
2019-05-29T06:13:47.557Z,11.00
2019-05-29T06:16:17.953Z,11.10
2019-05-29T06:18:49.252Z,11.30
2019-05-29T06:21:19.570Z,11.40
2019-05-29T06:23:49.987Z,11.50
2019-05-29T06:26:20.345Z,11.70
2019-05-29T06:28:50.913Z,11.90
2019-05-29T06:31:21.285Z,12.20
2019-05-29T06:33:51.719Z,12.50
2019-05-29T06:36:23.601Z,12.80
2019-05-29T06:38:54.305Z,13.10
2019-05-29T06:41:24.796Z,13.30
2019-05-29T06:43:55.164Z,13.60
2019-05-29T06:46:25.490Z,13.70
2019-05-29T06:49:00.269Z,13.80
2019-05-29T06:51:27.947Z,14.00
2019-05-29T06:53:58.305Z,14.10
2019-05-29T06:56:28.752Z,14.20
2019-05-29T06:58:59.087Z,14.30
2019-05-29T07:01:29.450Z,14.40
2019-05-29T07:04:11.463Z,14.60
2019-05-29T07:06:32.089Z,14.80
2019-05-29T07:09:02.406Z,14.90
2019-05-29T07:11:32.818Z,15.10
2019-05-29T07:14:03.426Z,15.20
2019-05-29T07:16:43.882Z,15.40
2019-05-29T07:19:25.198Z,15.60
2019-05-29T07:21:38.787Z,15.90
2019-05-29T07:24:09.660Z,16.10
2019-05-29T07:26:41.050Z,16.30
2019-05-29T07:29:11.830Z,16.40
2019-05-29T07:31:42.977Z,16.40
2019-05-29T07:34:13.678Z,16.40
2019-05-29T07:36:44.157Z,16.30
2019-05-29T07:39:14.474Z,16.30
2019-05-29T07:41:45.765Z,16.30
2019-05-29T07:44:16.245Z,16.40
2019-05-29T07:46:47.072Z,16.50
2019-05-29T07:49:18.871Z,16.70
2019-05-29T07:51:49.594Z,16.90
2019-05-29T07:54:19.979Z,17.00
2019-05-29T07:56:50.283Z,17.10
2019-05-29T07:59:20.649Z,17.30
2019-05-29T08:01:51.006Z,17.40
2019-05-29T08:04:21.460Z,17.40
2019-05-29T08:06:54.537Z,17.50
2019-05-29T08:09:24.180Z,17.60
2019-05-29T08:11:54.510Z,17.80
2019-05-29T08:14:24.913Z,17.90
2019-05-29T08:16:55.291Z,18.00
2019-05-29T08:19:25.812Z,18.00
2019-05-29T08:21:56.191Z,18.20
2019-05-29T08:24:26.557Z,18.30
2019-05-29T08:26:57.014Z,18.30
2019-05-29T08:29:27.412Z,18.40
2019-05-29T08:31:57.796Z,18.50
2019-05-29T08:34:28.143Z,18.50
2019-05-29T08:37:06.518Z,18.40
2019-05-29T08:39:36.221Z,18.20
2019-05-29T08:42:21.906Z,18.30
2019-05-29T08:44:35.050Z,18.60
2019-05-29T08:47:10.434Z,18.70
2019-05-29T08:49:37.444Z,18.90
2019-05-29T08:52:11.925Z,18.90
2019-05-29T08:54:39.837Z,18.80
2019-05-29T08:57:10.175Z,18.90
2019-05-29T08:59:40.703Z,19.20
2019-05-29T09:02:11.132Z,19.40
2019-05-29T09:04:43.018Z,19.50
2019-05-29T09:07:13.932Z,19.70
2019-05-29T09:09:44.910Z,20.00
2019-05-29T09:12:15.435Z,20.40
2019-05-29T09:14:45.769Z,20.80
2019-05-29T09:17:16.863Z,21.10
2019-05-29T09:19:48.343Z,21.10
2019-05-29T09:22:18.708Z,21.20
2019-05-29T09:24:49.222Z,21.40
2019-05-29T09:27:19.597Z,21.50
2019-05-29T09:29:50.059Z,21.60
2019-05-29T09:32:46.474Z,21.70
2019-05-29T09:34:52.683Z,21.90
2019-05-29T09:39:59.088Z,22.30
2019-05-29T09:42:29.477Z,22.50
2019-05-29T09:44:59.884Z,22.80
2019-05-29T09:47:30.224Z,23.10
2019-05-29T09:50:00.556Z,23.20
2019-05-29T09:52:30.969Z,23.30
2019-05-29T09:55:02.609Z,23.10
2019-05-29T09:57:33.367Z,22.90
2019-05-29T10:00:04.307Z,23.00
2019-05-29T10:02:35.183Z,23.20
2019-05-29T10:05:06.104Z,23.20
2019-05-29T10:07:36.919Z,23.10
2019-05-29T10:10:08.926Z,22.90
2019-05-29T10:12:39.254Z,22.70
2019-05-29T10:15:11.559Z,22.80
2019-05-29T10:17:41.933Z,22.70
2019-05-29T10:20:15.542Z,22.50
2019-05-29T10:22:45.894Z,22.50
2019-05-29T10:25:18.481Z,22.40
2019-05-29T10:27:48.866Z,22.50
2019-05-29T10:30:19.978Z,22.80
2019-05-29T10:32:50.337Z,23.10
2019-05-29T10:35:21.067Z,23.10
2019-05-29T10:37:52.833Z,22.90
2019-05-29T10:40:24.783Z,23.00
2019-05-29T10:42:55.125Z,23.00
2019-05-29T10:45:25.537Z,23.20
2019-05-29T10:47:55.905Z,23.30
2019-05-29T10:50:26.341Z,23.50
2019-05-29T10:52:56.663Z,23.50
2019-05-29T10:55:27.058Z,23.60
2019-05-29T10:57:57.383Z,23.70
2019-05-29T11:00:27.835Z,23.80
2019-05-29T11:02:58.142Z,23.80
2019-05-29T11:05:28.525Z,23.40
2019-05-29T11:07:58.865Z,23.20
2019-05-29T11:10:29.280Z,23.10
2019-05-29T11:12:59.624Z,23.10
2019-05-29T11:15:29.971Z,23.10
2019-05-29T11:18:00.357Z,23.20
2019-05-29T11:20:30.773Z,23.20
2019-05-29T11:23:01.213Z,23.60
2019-05-29T11:25:31.554Z,23.70
2019-05-29T11:28:01.862Z,24.00
2019-05-29T11:30:32.293Z,24.40
2019-05-29T11:33:02.645Z,24.60
2019-05-29T11:35:33.269Z,24.20
2019-05-29T11:38:03.628Z,23.70
2019-05-29T11:40:34.106Z,23.40
2019-05-29T11:43:04.546Z,23.70
2019-05-29T11:45:35.844Z,24.00
2019-05-29T11:48:07.179Z,24.20
2019-05-29T11:50:37.516Z,24.10
2019-05-29T11:53:07.811Z,23.90
2019-05-29T11:55:38.137Z,23.50
2019-05-29T11:58:08.641Z,23.40
2019-05-29T12:00:39.039Z,23.30
2019-05-29T12:03:09.381Z,23.40
2019-05-29T12:05:39.964Z,23.20
2019-05-29T12:08:10.361Z,23.10
2019-05-29T12:10:40.741Z,23.20
2019-05-29T12:13:11.098Z,23.50
2019-05-29T12:15:41.574Z,23.80
2019-05-29T12:18:23.374Z,24.00
2019-05-29T12:20:44.243Z,24.10
2019-05-29T12:23:25.846Z,24.10
2019-05-29T12:25:46.679Z,24.10
2019-05-29T12:28:17.145Z,23.90
2019-05-29T12:30:47.440Z,23.80
2019-05-29T12:33:17.787Z,23.60
2019-05-29T12:35:50.307Z,23.90
2019-05-29T12:38:20.376Z,24.10
2019-05-29T12:40:50.778Z,23.70
2019-05-29T12:43:26.960Z,23.60
2019-05-29T12:45:53.526Z,23.80
2019-05-29T12:48:23.848Z,24.00
2019-05-29T12:50:55.979Z,24.10
2019-05-29T12:53:30.909Z,24.10
2019-05-29T12:55:58.534Z,23.90
2019-05-29T12:58:28.896Z,23.60
2019-05-29T13:01:00.738Z,23.20
2019-05-29T13:03:31.253Z,23.00
2019-05-29T13:06:02.481Z,22.80
2019-05-29T13:08:33.114Z,22.70
2019-05-29T13:11:04.972Z,22.60
2019-05-29T13:13:35.761Z,22.60
2019-05-29T13:16:06.210Z,22.50
2019-05-29T13:18:36.701Z,22.30
2019-05-29T13:21:07.174Z,22.00
2019-05-29T13:23:44.971Z,21.90
2019-05-29T13:26:09.650Z,21.70
2019-05-29T13:28:39.960Z,21.80
2019-05-29T13:31:10.306Z,22.20
2019-05-29T13:33:40.636Z,22.40
2019-05-29T13:36:11.271Z,22.60
2019-05-29T13:38:41.621Z,22.70
2019-05-29T13:41:11.982Z,22.70
2019-05-29T13:43:42.319Z,22.60
2019-05-29T13:46:12.699Z,22.50
2019-05-29T13:48:43.043Z,22.40
2019-05-29T13:51:13.353Z,22.30
2019-05-29T13:53:43.713Z,22.40
2019-05-29T13:56:14.089Z,22.80
2019-05-29T13:58:44.849Z,22.60
2019-05-29T14:01:15.172Z,22.40
2019-05-29T14:03:45.527Z,22.30
2019-05-29T14:06:15.979Z,22.60
2019-05-29T14:08:46.420Z,22.80
2019-05-29T14:11:16.807Z,22.80
2019-05-29T14:13:47.215Z,22.80
2019-05-29T14:16:17.532Z,23.00
2019-05-29T14:18:48.035Z,23.30
2019-05-29T14:21:18.437Z,23.40
2019-05-29T14:23:48.776Z,23.00
2019-05-29T14:26:19.306Z,22.60
2019-05-29T14:28:49.669Z,22.30
2019-05-29T14:31:20.115Z,22.10
2019-05-29T14:33:50.544Z,22.30
2019-05-29T14:36:21.054Z,22.50
2019-05-29T14:38:51.378Z,22.70
2019-05-29T14:41:21.819Z,22.70
2019-05-29T14:43:52.106Z,22.50
2019-05-29T14:46:22.432Z,22.30
2019-05-29T14:48:52.828Z,22.20
2019-05-29T14:51:23.538Z,22.10
2019-05-29T14:53:53.846Z,22.30
2019-05-29T14:56:24.260Z,22.50
2019-05-29T14:58:54.631Z,22.70
2019-05-29T15:01:24.995Z,22.60
2019-05-29T15:03:55.725Z,22.30
2019-05-29T15:06:26.218Z,22.00
2019-05-29T15:08:56.554Z,21.70
2019-05-29T15:11:26.945Z,21.60
2019-05-29T15:13:57.523Z,21.40
2019-05-29T15:16:27.887Z,21.30
2019-05-29T15:18:58.213Z,21.20
2019-05-29T15:21:28.546Z,21.20
2019-05-29T15:23:58.882Z,21.30
2019-05-29T15:26:29.331Z,21.20
2019-05-29T15:28:59.655Z,21.20
2019-05-29T15:31:29.948Z,21.20
2019-05-29T15:34:00.303Z,21.10
2019-05-29T15:36:30.994Z,21.00
2019-05-29T15:39:02.434Z,20.90
2019-05-29T15:41:32.757Z,21.00
2019-05-29T15:44:03.078Z,20.90
2019-05-29T15:46:33.476Z,20.90
2019-05-29T15:49:03.778Z,20.80
2019-05-29T15:51:34.097Z,20.60
2019-05-29T15:54:04.436Z,20.40
2019-05-29T15:56:34.776Z,20.40
2019-05-29T15:59:05.494Z,20.30
2019-05-29T16:01:35.811Z,20.20
2019-05-29T16:04:07.622Z,20.20
2019-05-29T16:06:38.432Z,20.10
2019-05-29T16:09:10.236Z,20.00
2019-05-29T16:11:40.724Z,20.00
2019-05-29T16:14:11.063Z,20.00
2019-05-29T16:16:41.414Z,20.00
2019-05-29T16:19:12.102Z,20.00
2019-05-29T16:21:42.480Z,20.00
2019-05-29T16:24:12.791Z,20.00
2019-05-29T16:26:43.093Z,20.00
2019-05-29T16:29:17.332Z,19.90
2019-05-29T16:31:46.813Z,19.90
2019-05-29T16:34:18.962Z,19.90
2019-05-29T16:39:25.127Z,19.80
2019-05-29T16:41:55.458Z,19.80
2019-05-29T16:44:29.315Z,19.80
2019-05-29T16:46:57.907Z,19.70
2019-05-29T16:49:28.240Z,19.70
2019-05-29T16:51:58.562Z,19.50
2019-05-29T16:54:28.919Z,19.50
2019-05-29T16:56:59.256Z,19.60
2019-05-29T16:59:29.928Z,19.60
2019-05-29T17:02:00.564Z,19.60
2019-05-29T17:04:30.897Z,19.50
2019-05-29T17:07:01.351Z,19.50
2019-05-29T17:09:31.720Z,19.50
2019-05-29T17:12:02.107Z,19.50
2019-05-29T17:14:32.454Z,19.50
2019-05-29T17:17:02.799Z,19.50
2019-05-29T17:19:33.154Z,19.40
2019-05-29T17:22:03.499Z,19.40
2019-05-29T17:24:33.820Z,19.20
2019-05-29T17:27:04.173Z,18.70
2019-05-29T17:29:34.504Z,18.40
2019-05-29T17:32:04.806Z,18.20
2019-05-29T17:34:35.158Z,18.20
2019-05-29T17:37:05.680Z,18.20
2019-05-29T17:39:36.006Z,18.20
2019-05-29T17:42:06.446Z,18.30
2019-05-29T17:44:36.791Z,18.30
2019-05-29T17:47:07.136Z,18.20
2019-05-29T17:49:37.481Z,18.20
2019-05-29T17:52:07.827Z,18.30
2019-05-29T17:54:38.163Z,18.30
2019-05-29T17:57:08.513Z,18.30
2019-05-29T17:59:38.975Z,18.30
2019-05-29T18:02:09.936Z,18.40
2019-05-29T18:04:40.333Z,18.50
2019-05-29T18:07:10.806Z,18.60
2019-05-29T18:09:41.107Z,18.70
2019-05-29T18:12:11.463Z,18.70
2019-05-29T18:14:41.853Z,18.70
2019-05-29T18:17:12.155Z,18.70
2019-05-29T18:19:42.503Z,18.70
2019-05-29T18:22:12.814Z,18.70
2019-05-29T18:24:43.352Z,18.70
2019-05-29T18:27:13.636Z,18.70
2019-05-29T18:29:43.966Z,18.60
2019-05-29T18:32:14.390Z,18.70
2019-05-29T18:34:44.697Z,18.60
2019-05-29T18:37:15.077Z,18.60
2019-05-29T18:39:45.410Z,18.70
2019-05-29T18:42:15.781Z,18.60
2019-05-29T18:44:46.110Z,18.60
2019-05-29T18:47:16.431Z,18.60
2019-05-29T18:49:46.805Z,18.50
2019-05-29T18:52:17.117Z,18.50
2019-05-29T18:54:47.472Z,18.50
2019-05-29T18:57:17.843Z,18.50
2019-05-29T18:59:48.143Z,18.40
2019-05-29T19:02:18.490Z,18.40
2019-05-29T19:04:48.804Z,18.20
2019-05-29T19:07:19.459Z,18.30
2019-05-29T19:09:49.764Z,18.20
2019-05-29T19:12:20.226Z,18.20
2019-05-29T19:14:50.556Z,18.20
2019-05-29T19:17:22.037Z,18.20
2019-05-29T19:19:52.567Z,18.20
2019-05-29T19:22:24.234Z,18.10
2019-05-29T19:24:54.686Z,18.10
2019-05-29T19:27:35.101Z,18.10
2019-05-29T19:29:57.083Z,18.10
2019-05-29T19:32:27.416Z,18.00
2019-05-29T19:34:57.808Z,18.00
2019-05-29T19:37:28.183Z,18.00
2019-05-29T19:39:58.550Z,18.00
2019-05-29T19:42:30.146Z,17.90
2019-05-29T19:45:00.947Z,17.90
2019-05-29T19:47:31.332Z,17.90
2019-05-29T19:50:01.623Z,17.90
2019-05-29T19:52:33.225Z,17.90
2019-05-29T19:55:04.407Z,17.80
2019-05-29T19:57:54.177Z,17.80
2019-05-29T20:00:08.534Z,17.80
2019-05-29T20:02:38.991Z,17.80
2019-05-29T20:05:09.443Z,17.70
2019-05-29T20:07:39.806Z,17.70
2019-05-29T20:10:10.358Z,17.70
2019-05-29T20:12:40.691Z,17.70
2019-05-29T20:15:11.240Z,17.70
2019-05-29T20:17:41.540Z,17.60
2019-05-29T20:20:12.086Z,17.60
2019-05-29T20:22:43.596Z,17.60
2019-05-29T20:25:14.198Z,17.50
2019-05-29T20:27:44.688Z,17.50
2019-05-29T20:30:19.083Z,17.50
2019-05-29T20:32:49.615Z,17.40
2019-05-29T20:35:20.327Z,17.30
2019-05-29T20:37:50.693Z,17.30
2019-05-29T20:40:21.805Z,17.20
2019-05-29T20:42:52.292Z,17.20
2019-05-29T20:45:22.634Z,17.20
2019-05-29T20:47:53.004Z,17.20
2019-05-29T20:50:23.652Z,17.10
2019-05-29T20:52:53.993Z,17.20
2019-05-29T20:55:24.321Z,17.20
2019-05-29T20:57:55.006Z,17.10
2019-05-29T21:00:25.340Z,17.20
2019-05-29T21:02:55.808Z,17.10
2019-05-29T21:05:26.267Z,17.10
2019-05-29T21:07:56.705Z,17.10
2019-05-29T21:10:27.043Z,17.10
2019-05-29T21:12:57.484Z,17.00
2019-05-29T21:15:27.949Z,17.00
2019-05-29T21:17:58.451Z,17.00
2019-05-29T21:20:29.242Z,16.90
2019-05-29T21:22:59.614Z,16.80
2019-05-29T21:25:30.013Z,16.80
2019-05-29T21:28:00.400Z,16.80
2019-05-29T21:30:30.810Z,16.70
2019-05-29T21:33:01.343Z,16.60
2019-05-29T21:35:31.806Z,16.70
2019-05-29T21:38:02.201Z,16.70
2019-05-29T21:40:32.667Z,16.60
2019-05-29T21:43:03.098Z,16.50
2019-05-29T21:45:33.392Z,16.50
2019-05-29T21:48:03.826Z,16.50
2019-05-29T21:50:34.133Z,16.50
2019-05-29T21:53:04.437Z,16.50
2019-05-29T21:55:34.774Z,16.50
2019-05-29T21:58:05.094Z,16.50
2019-05-29T22:00:42.235Z,16.40
2019-05-29T22:03:13.081Z,16.40
2019-05-29T22:05:44.732Z,16.40
2019-05-29T22:08:15.274Z,16.40
2019-05-29T22:10:46.137Z,16.40
2019-05-29T22:13:16.577Z,16.40
2019-05-29T22:15:46.929Z,16.40
2019-05-29T22:18:17.269Z,16.40
2019-05-29T22:20:47.615Z,16.40
2019-05-29T22:23:17.976Z,16.30
2019-05-29T22:25:48.329Z,16.30
2019-05-29T22:28:18.843Z,16.20
2019-05-29T22:30:49.215Z,16.10
2019-05-29T22:33:19.537Z,16.00
2019-05-29T22:35:52.255Z,15.90
2019-05-29T22:38:22.260Z,15.80
2019-05-29T22:40:53.845Z,15.80
2019-05-29T22:43:24.924Z,15.70
2019-05-29T22:45:55.634Z,15.70
2019-05-29T22:48:26.199Z,15.60
2019-05-29T22:50:57.688Z,15.50
2019-05-29T22:53:28.464Z,15.40
2019-05-29T22:55:59.726Z,15.30
2019-05-29T22:58:30.314Z,15.20
2019-05-29T23:01:00.692Z,15.10
2019-05-29T23:03:31.036Z,15.10
2019-05-29T23:06:02.485Z,15.10
2019-05-29T23:08:32.955Z,15.00
2019-05-29T23:11:03.317Z,14.90
2019-05-29T23:13:33.666Z,14.90
2019-05-29T23:16:04.292Z,14.90
2019-05-29T23:18:34.626Z,14.70
2019-05-29T23:21:04.979Z,14.60
2019-05-29T23:23:35.364Z,14.50
2019-05-29T23:26:05.706Z,14.40
2019-05-29T23:28:36.054Z,14.40
2019-05-29T23:31:06.366Z,14.20
2019-05-29T23:33:36.704Z,14.00
2019-05-29T23:36:07.411Z,13.90
2019-05-29T23:38:37.717Z,13.80
2019-05-29T23:41:08.016Z,13.80
2019-05-29T23:43:38.370Z,13.80
2019-05-29T23:46:08.685Z,13.80
2019-05-29T23:48:39.006Z,13.90
2019-05-29T23:51:09.338Z,13.80
2019-05-29T23:53:39.866Z,13.70
2019-05-29T23:56:10.181Z,13.70
2019-05-29T23:58:40.551Z,13.60
